sensor_id;sensor_type;location;lat;lon;timestamp;pressure;altitude;pressure_sealevel;temperature;humidity
76114;BME280;64845;53.086;5.834;2023-06-14T00:01:34;101751.50;;;17.72;49.03
76114;BME280;64845;53.086;5.834;2023-06-14T00:04:00;101754.34;;;17.69;48.90
76114;BME280;64845;53.086;5.834;2023-06-14T00:06:30;101753.56;;;17.67;49.17
76114;BME280;64845;53.086;5.834;2023-06-14T00:08:55;101761.81;;;17.64;49.26
76114;BME280;64845;53.086;5.834;2023-06-14T00:11:21;101755.72;;;17.60;49.11
76114;BME280;64845;53.086;5.834;2023-06-14T00:13:46;101761.28;;;17.57;49.24
76114;BME280;64845;53.086;5.834;2023-06-14T00:16:12;101757.88;;;17.54;49.42
76114;BME280;64845;53.086;5.834;2023-06-14T00:18:37;101756.38;;;17.48;49.31
76114;BME280;64845;53.086;5.834;2023-06-14T00:21:06;101756.56;;;17.45;49.49
76114;BME280;64845;53.086;5.834;2023-06-14T00:23:31;101759.41;;;17.42;49.90
76114;BME280;64845;53.086;5.834;2023-06-14T00:25:57;101761.22;;;17.41;49.65
76114;BME280;64845;53.086;5.834;2023-06-14T00:28:22;101758.69;;;17.38;49.97
76114;BME280;64845;53.086;5.834;2023-06-14T00:30:47;101764.28;;;17.35;49.89
76114;BME280;64845;53.086;5.834;2023-06-14T00:33:13;101765.22;;;17.34;49.90
76114;BME280;64845;53.086;5.834;2023-06-14T00:35:39;101770.78;;;17.31;49.95
76114;BME280;64845;53.086;5.834;2023-06-14T00:38:04;101767.34;;;17.27;50.40
76114;BME280;64845;53.086;5.834;2023-06-14T00:40:30;101766.66;;;17.24;50.42
76114;BME280;64845;53.086;5.834;2023-06-14T00:42:55;101764.09;;;17.20;50.45
76114;BME280;64845;53.086;5.834;2023-06-14T00:45:21;101764.25;;;17.17;50.65
76114;BME280;64845;53.086;5.834;2023-06-14T00:47:47;101771.59;;;17.15;50.61
76114;BME280;64845;53.086;5.834;2023-06-14T00:50:18;101771.66;;;17.14;50.88
76114;BME280;64845;53.086;5.834;2023-06-14T00:52:45;101767.44;;;17.08;50.99
76114;BME280;64845;53.086;5.834;2023-06-14T00:55:10;101761.34;;;17.04;51.25
76114;BME280;64845;53.086;5.834;2023-06-14T00:57:36;101766.00;;;17.01;51.34
76114;BME280;64845;53.086;5.834;2023-06-14T01:00:03;101758.06;;;16.98;51.38
76114;BME280;64845;53.086;5.834;2023-06-14T01:02:33;101759.03;;;16.97;51.61
76114;BME280;64845;53.086;5.834;2023-06-14T01:04:59;101760.13;;;16.92;51.66
76114;BME280;64845;53.086;5.834;2023-06-14T01:13:28;101767.88;;;16.81;51.86
76114;BME280;64845;53.086;5.834;2023-06-14T01:15:55;101764.38;;;16.79;52.12
76114;BME280;64845;53.086;5.834;2023-06-14T01:18:22;101758.28;;;16.75;52.22
76114;BME280;64845;53.086;5.834;2023-06-14T01:20:51;101764.59;;;16.74;52.38
76114;BME280;64845;53.086;5.834;2023-06-14T01:23:18;101759.38;;;16.71;52.33
76114;BME280;64845;53.086;5.834;2023-06-14T01:25:44;101755.00;;;16.69;52.46
76114;BME280;64845;53.086;5.834;2023-06-14T01:28:11;101763.41;;;16.62;52.50
76114;BME280;64845;53.086;5.834;2023-06-14T01:30:39;101764.44;;;16.60;52.66
76114;BME280;64845;53.086;5.834;2023-06-14T01:33:13;101763.63;;;16.58;52.84
76114;BME280;64845;53.086;5.834;2023-06-14T01:35:43;101768.22;;;16.56;53.05
76114;BME280;64845;53.086;5.834;2023-06-14T01:38:09;101762.13;;;16.52;53.09
76114;BME280;64845;53.086;5.834;2023-06-14T01:40:34;101767.66;;;16.49;53.11
76114;BME280;64845;53.086;5.834;2023-06-14T01:43:01;101768.59;;;16.48;53.16
76114;BME280;64845;53.086;5.834;2023-06-14T01:45:27;101775.09;;;16.44;53.40
76114;BME280;64845;53.086;5.834;2023-06-14T01:47:54;101773.44;;;16.41;53.47
76114;BME280;64845;53.086;5.834;2023-06-14T01:50:20;101770.78;;;16.40;53.65
76114;BME280;64845;53.086;5.834;2023-06-14T01:52:46;101778.06;;;16.38;53.70
76114;BME280;64845;53.086;5.834;2023-06-14T01:55:11;101770.16;;;16.35;53.83
76114;BME280;64845;53.086;5.834;2023-06-14T01:57:37;101775.69;;;16.31;53.93
76114;BME280;64845;53.086;5.834;2023-06-14T02:00:04;101771.31;;;16.29;54.10
76114;BME280;64845;53.086;5.834;2023-06-14T02:02:29;101769.72;;;16.25;54.05
76114;BME280;64845;53.086;5.834;2023-06-14T02:04:54;101775.19;;;16.23;54.29
76114;BME280;64845;53.086;5.834;2023-06-14T02:07:22;101778.97;;;16.19;54.37
76114;BME280;64845;53.086;5.834;2023-06-14T02:09:48;101779.03;;;16.17;54.46
76114;BME280;64845;53.086;5.834;2023-06-14T02:12:13;101774.59;;;16.16;54.61
76114;BME280;64845;53.086;5.834;2023-06-14T02:14:39;101766.59;;;16.15;54.72
76114;BME280;64845;53.086;5.834;2023-06-14T02:17:04;101766.66;;;16.13;54.89
76114;BME280;64845;53.086;5.834;2023-06-14T02:19:31;101769.50;;;16.10;55.07
76114;BME280;64845;53.086;5.834;2023-06-14T02:21:57;101774.06;;;16.08;55.01
76114;BME280;64845;53.086;5.834;2023-06-14T02:24:22;101771.63;;;16.04;55.08
76114;BME280;64845;53.086;5.834;2023-06-14T02:26:49;101772.56;;;16.02;55.33
76114;BME280;64845;53.086;5.834;2023-06-14T02:29:14;101769.13;;;15.99;55.18
76114;BME280;64845;53.086;5.834;2023-06-14T02:31:41;101772.88;;;15.96;55.40
76114;BME280;64845;53.086;5.834;2023-06-14T02:34:06;101776.56;;;15.94;55.83
76114;BME280;64845;53.086;5.834;2023-06-14T02:36:34;101776.78;;;15.89;56.15
76114;BME280;64845;53.086;5.834;2023-06-14T02:38:59;101775.97;;;15.87;55.87
76114;BME280;64845;53.086;5.834;2023-06-14T02:41:25;101770.66;;;15.85;55.99
76114;BME280;64845;53.086;5.834;2023-06-14T02:43:51;101769.88;;;15.82;56.13
76114;BME280;64845;53.086;5.834;2023-06-14T02:46:17;101780.66;;;15.82;56.39
76114;BME280;64845;53.086;5.834;2023-06-14T02:48:42;101776.28;;;15.79;56.17
76114;BME280;64845;53.086;5.834;2023-06-14T02:51:08;101779.06;;;15.78;56.29
76114;BME280;64845;53.086;5.834;2023-06-14T02:53:35;101775.72;;;15.73;56.69
76114;BME280;64845;53.086;5.834;2023-06-14T02:56:01;101785.59;;;15.72;56.57
76114;BME280;64845;53.086;5.834;2023-06-14T02:58:26;101778.53;;;15.69;56.81
76114;BME280;64845;53.086;5.834;2023-06-14T03:00:52;101786.69;;;15.68;56.82
76114;BME280;64845;53.086;5.834;2023-06-14T03:03:20;101787.63;;;15.67;56.86
76114;BME280;64845;53.086;5.834;2023-06-14T03:05:47;101788.63;;;15.64;56.99
76114;BME280;64845;53.086;5.834;2023-06-14T03:08:15;101787.91;;;15.61;57.22
76114;BME280;64845;53.086;5.834;2023-06-14T03:10:51;101780.91;;;15.56;57.46
76114;BME280;64845;53.086;5.834;2023-06-14T03:13:16;101792.69;;;15.54;57.33
76114;BME280;64845;53.086;5.834;2023-06-14T03:15:42;101793.63;;;15.53;57.46
76114;BME280;64845;53.086;5.834;2023-06-14T03:18:10;101792.75;;;15.52;57.69
76114;BME280;64845;53.086;5.834;2023-06-14T03:20:37;101793.78;;;15.50;57.72
76114;BME280;64845;53.086;5.834;2023-06-14T03:23:03;101788.50;;;15.47;57.85
76114;BME280;64845;53.086;5.834;2023-06-14T03:25:30;101793.97;;;15.45;57.90
76114;BME280;64845;53.086;5.834;2023-06-14T03:27:56;101800.34;;;15.43;58.07
76114;BME280;64845;53.086;5.834;2023-06-14T03:30:22;101798.59;;;15.41;58.22
76114;BME280;64845;53.086;5.834;2023-06-14T03:32:47;101799.41;;;15.44;58.14
76114;BME280;64845;53.086;5.834;2023-06-14T03:35:12;101807.56;;;15.42;58.20
76114;BME280;64845;53.086;5.834;2023-06-14T03:37:45;101803.97;;;15.41;58.15
76114;BME280;64845;53.086;5.834;2023-06-14T03:40:12;101803.22;;;15.39;58.30
76114;BME280;64845;53.086;5.834;2023-06-14T03:42:39;101794.25;;;15.39;58.41
76114;BME280;64845;53.086;5.834;2023-06-14T03:45:05;101808.59;;;15.39;58.71
76114;BME280;64845;53.086;5.834;2023-06-14T03:47:31;101803.22;;;15.39;58.65
76114;BME280;64845;53.086;5.834;2023-06-14T03:49:56;101803.34;;;15.36;58.65
76114;BME280;64845;53.086;5.834;2023-06-14T03:52:22;101809.66;;;15.35;58.80
76114;BME280;64845;53.086;5.834;2023-06-14T03:54:48;101806.06;;;15.35;58.65
76114;BME280;64845;53.086;5.834;2023-06-14T03:57:15;101811.53;;;15.33;58.83
76114;BME280;64845;53.086;5.834;2023-06-14T03:59:40;101816.97;;;15.32;58.76
76114;BME280;64845;53.086;5.834;2023-06-14T04:02:06;101821.38;;;15.34;58.88
76114;BME280;64845;53.086;5.834;2023-06-14T04:04:32;101823.16;;;15.34;59.06
76114;BME280;64845;53.086;5.834;2023-06-14T04:07:00;101826.75;;;15.34;58.96
76114;BME280;64845;53.086;5.834;2023-06-14T04:09:30;101832.13;;;15.34;59.05
76114;BME280;64845;53.086;5.834;2023-06-14T04:11:56;101832.06;;;15.36;59.29
76114;BME280;64845;53.086;5.834;2023-06-14T04:14:21;101832.94;;;15.36;59.18
76114;BME280;64845;53.086;5.834;2023-06-14T04:16:47;101839.13;;;15.38;59.29
76114;BME280;64845;53.086;5.834;2023-06-14T04:19:14;101833.75;;;15.38;59.20
76114;BME280;64845;53.086;5.834;2023-06-14T04:21:39;101844.44;;;15.40;59.65
76114;BME280;64845;53.086;5.834;2023-06-14T04:24:05;101842.59;;;15.40;59.49
76114;BME280;64845;53.086;5.834;2023-06-14T04:26:30;101856.00;;;15.42;59.64
76114;BME280;64845;53.086;5.834;2023-06-14T04:28:58;101851.44;;;15.44;59.45
76114;BME280;64845;53.086;5.834;2023-06-14T04:31:28;101852.31;;;15.45;59.76
76114;BME280;64845;53.086;5.834;2023-06-14T04:33:54;101855.81;;;15.47;59.70
76114;BME280;64845;53.086;5.834;2023-06-14T04:36:19;101857.50;;;15.49;59.91
76114;BME280;64845;53.086;5.834;2023-06-14T04:38:45;101860.97;;;15.51;60.03
76114;BME280;64845;53.086;5.834;2023-06-14T04:41:11;101856.41;;;15.53;59.93
76114;BME280;64845;53.086;5.834;2023-06-14T04:43:37;101859.91;;;15.55;60.13
76114;BME280;64845;53.086;5.834;2023-06-14T04:46:05;101857.09;;;15.59;60.08
76114;BME280;64845;53.086;5.834;2023-06-14T04:48:39;101862.41;;;15.60;59.98
76114;BME280;64845;53.086;5.834;2023-06-14T04:51:06;101861.41;;;15.63;60.41
76114;BME280;64845;53.086;5.834;2023-06-14T04:53:32;101864.03;;;15.64;60.44
76114;BME280;64845;53.086;5.834;2023-06-14T04:55:57;101863.03;;;15.67;60.39
76114;BME280;64845;53.086;5.834;2023-06-14T04:58:22;101860.25;;;15.68;60.58
76114;BME280;64845;53.086;5.834;2023-06-14T05:00:48;101862.00;;;15.69;60.62
76114;BME280;64845;53.086;5.834;2023-06-14T05:03:13;101867.31;;;15.71;60.58
76114;BME280;64845;53.086;5.834;2023-06-14T05:05:41;101862.69;;;15.75;60.46
76114;BME280;64845;53.086;5.834;2023-06-14T05:08:07;101862.56;;;15.78;60.31
76114;BME280;64845;53.086;5.834;2023-06-14T05:10:33;101865.09;;;15.81;60.57
76114;BME280;64845;53.086;5.834;2023-06-14T05:13:01;101866.69;;;15.85;60.56
76114;BME280;64845;53.086;5.834;2023-06-14T05:15:27;101871.13;;;15.88;60.55
76114;BME280;64845;53.086;5.834;2023-06-14T05:17:54;101869.09;;;15.93;60.52
76114;BME280;64845;53.086;5.834;2023-06-14T05:20:24;101872.44;;;15.98;60.68
76114;BME280;64845;53.086;5.834;2023-06-14T05:22:51;101869.50;;;16.04;60.71
76114;BME280;64845;53.086;5.834;2023-06-14T05:25:17;101864.75;;;16.09;60.71
76114;BME280;64845;53.086;5.834;2023-06-14T05:27:43;101872.56;;;16.15;60.60
76114;BME280;64845;53.086;5.834;2023-06-14T05:30:08;101874.09;;;16.21;60.83
76114;BME280;64845;53.086;5.834;2023-06-14T05:32:34;101872.06;;;16.26;60.70
76114;BME280;64845;53.086;5.834;2023-06-14T05:34:59;101870.03;;;16.31;60.50
76114;BME280;64845;53.086;5.834;2023-06-14T05:37:25;101875.09;;;16.38;60.49
76114;BME280;64845;53.086;5.834;2023-06-14T05:39:50;101873.09;;;16.43;60.57
76114;BME280;64845;53.086;5.834;2023-06-14T05:42:16;101877.25;;;16.50;60.42
76114;BME280;64845;53.086;5.834;2023-06-14T05:44:41;101884.16;;;16.56;60.26
76114;BME280;64845;53.086;5.834;2023-06-14T05:47:06;101888.25;;;16.65;60.19
76114;BME280;64845;53.086;5.834;2023-06-14T05:49:32;101888.00;;;16.69;59.75
76114;BME280;64845;53.086;5.834;2023-06-14T05:51:57;101885.03;;;16.75;59.91
76114;BME280;64845;53.086;5.834;2023-06-14T05:54:22;101880.28;;;16.81;59.87
76114;BME280;64845;53.086;5.834;2023-06-14T05:56:48;101882.66;;;16.87;59.69
76114;BME280;64845;53.086;5.834;2023-06-14T05:59:13;101883.28;;;16.94;59.79
76114;BME280;64845;53.086;5.834;2023-06-14T06:01:39;101882.03;;;17.01;59.63
76114;BME280;64845;53.086;5.834;2023-06-14T06:04:05;101889.84;;;17.07;59.66
76114;BME280;64845;53.086;5.834;2023-06-14T06:06:31;101884.13;;;17.13;59.45
76114;BME280;64845;53.086;5.834;2023-06-14T06:08:57;101895.50;;;17.20;59.34
76114;BME280;64845;53.086;5.834;2023-06-14T06:11:23;101895.25;;;17.25;59.20
76114;BME280;64845;53.086;5.834;2023-06-14T06:13:49;101891.31;;;17.32;59.11
76114;BME280;64845;53.086;5.834;2023-06-14T06:16:14;101903.63;;;17.37;59.08
76114;BME280;64845;53.086;5.834;2023-06-14T06:18:40;101903.31;;;17.44;58.94
76114;BME280;64845;53.086;5.834;2023-06-14T06:21:05;101906.63;;;17.49;58.84
76114;BME280;64845;53.086;5.834;2023-06-14T06:23:31;101905.47;;;17.55;58.80
76114;BME280;64845;53.086;5.834;2023-06-14T06:25:56;101906.97;;;17.60;58.44
76114;BME280;64845;53.086;5.834;2023-06-14T06:28:22;101915.69;;;17.65;58.49
76114;BME280;64845;53.086;5.834;2023-06-14T06:30:47;101909.03;;;17.73;58.35
76114;BME280;64845;53.086;5.834;2023-06-14T06:33:13;101912.38;;;17.78;58.25
76114;BME280;64845;53.086;5.834;2023-06-14T06:35:39;101912.91;;;17.85;58.20
76114;BME280;64845;53.086;5.834;2023-06-14T06:38:04;101917.09;;;17.90;58.17
76114;BME280;64845;53.086;5.834;2023-06-14T06:40:30;101923.06;;;17.97;57.95
76114;BME280;64845;53.086;5.834;2023-06-14T06:42:55;101925.38;;;18.05;58.02
76114;BME280;64845;53.086;5.834;2023-06-14T06:45:21;101927.69;;;18.12;58.02
76114;BME280;64845;53.086;5.834;2023-06-14T06:47:48;101919.19;;;18.20;57.82
76114;BME280;64845;53.086;5.834;2023-06-14T06:50:13;101924.16;;;18.28;57.64
76114;BME280;64845;53.086;5.834;2023-06-14T06:52:39;101934.56;;;18.36;57.52
76114;BME280;64845;53.086;5.834;2023-06-14T06:55:05;101926.03;;;18.43;57.45
76114;BME280;64845;53.086;5.834;2023-06-14T06:57:31;101945.31;;;18.53;57.31
76114;BME280;64845;53.086;5.834;2023-06-14T06:59:57;101939.59;;;18.60;56.99
76114;BME280;64845;53.086;5.834;2023-06-14T07:02:22;101948.13;;;18.68;56.89
76114;BME280;64845;53.086;5.834;2023-06-14T07:04:48;101947.69;;;18.76;56.68
76114;BME280;64845;53.086;5.834;2023-06-14T07:07:13;101950.84;;;18.84;56.42
76114;BME280;64845;53.086;5.834;2023-06-14T07:09:38;101955.72;;;18.93;56.20
76114;BME280;64845;53.086;5.834;2023-06-14T07:12:04;101955.38;;;19.01;55.99
76114;BME280;64845;53.086;5.834;2023-06-14T07:14:30;101955.78;;;19.09;56.10
76114;BME280;64845;53.086;5.834;2023-06-14T07:16:55;101950.72;;;19.19;55.83
76114;BME280;64845;53.086;5.834;2023-06-14T07:19:21;101952.91;;;19.28;55.40
76114;BME280;64845;53.086;5.834;2023-06-14T07:21:46;101948.00;;;19.35;55.19
76114;BME280;64845;53.086;5.834;2023-06-14T07:24:13;101948.41;;;19.43;54.96
76114;BME280;64845;53.086;5.834;2023-06-14T07:26:39;101950.69;;;19.51;54.76
76114;BME280;64845;53.086;5.834;2023-06-14T07:29:04;101956.50;;;19.59;54.43
76114;BME280;64845;53.086;5.834;2023-06-14T07:31:30;101955.19;;;19.67;54.04
76114;BME280;64845;53.086;5.834;2023-06-14T07:33:55;101958.38;;;19.73;53.91
76114;BME280;64845;53.086;5.834;2023-06-14T07:36:21;101953.34;;;19.82;53.73
76114;BME280;64845;53.086;5.834;2023-06-14T07:38:47;101953.91;;;19.88;53.50
76114;BME280;64845;53.086;5.834;2023-06-14T07:41:12;101946.16;;;19.97;53.18
76114;BME280;64845;53.086;5.834;2023-06-14T07:43:37;101953.84;;;20.04;53.01
76114;BME280;64845;53.086;5.834;2023-06-14T07:46:03;101955.22;;;20.12;52.85
76114;BME280;64845;53.086;5.834;2023-06-14T07:48:29;101955.69;;;20.18;52.69
76114;BME280;64845;53.086;5.834;2023-06-14T07:50:54;101958.81;;;20.27;52.60
76114;BME280;64845;53.086;5.834;2023-06-14T07:53:20;101960.09;;;20.35;52.36
76114;BME280;64845;53.086;5.834;2023-06-14T07:55:45;101961.34;;;20.44;52.17
76114;BME280;64845;53.086;5.834;2023-06-14T07:58:12;101962.50;;;20.54;52.17
76114;BME280;64845;53.086;5.834;2023-06-14T08:00:38;101962.69;;;20.66;51.69
76114;BME280;64845;53.086;5.834;2023-06-14T08:03:03;101963.88;;;20.76;51.63
76114;BME280;64845;53.086;5.834;2023-06-14T08:05:29;101961.34;;;20.88;51.36
76114;BME280;64845;53.086;5.834;2023-06-14T08:07:55;101962.47;;;20.98;51.41
76114;BME280;64845;53.086;5.834;2023-06-14T08:10:21;101971.84;;;21.07;51.07
76114;BME280;64845;53.086;5.834;2023-06-14T08:12:47;101973.09;;;21.16;50.52
76114;BME280;64845;53.086;5.834;2023-06-14T08:15:15;101964.34;;;21.25;50.31
76114;BME280;64845;53.086;5.834;2023-06-14T08:17:42;101971.88;;;21.34;50.19
76114;BME280;64845;53.086;5.834;2023-06-14T08:20:08;101970.28;;;21.44;50.27
76114;BME280;64845;53.086;5.834;2023-06-14T08:22:33;101966.09;;;21.53;49.90
76114;BME280;64845;53.086;5.834;2023-06-14T08:25:00;101964.50;;;21.64;49.81
76114;BME280;64845;53.086;5.834;2023-06-14T08:27:26;101963.00;;;21.72;49.14
76114;BME280;64845;53.086;5.834;2023-06-14T08:29:51;101970.75;;;21.79;48.84
76114;BME280;64845;53.086;5.834;2023-06-14T08:32:17;101963.03;;;21.85;48.48
76114;BME280;64845;53.086;5.834;2023-06-14T08:34:42;101965.22;;;21.93;48.34
76114;BME280;64845;53.086;5.834;2023-06-14T08:37:08;101967.19;;;22.04;48.17
76114;BME280;64845;53.086;5.834;2023-06-14T08:39:33;101965.56;;;22.14;48.22
76114;BME280;64845;53.086;5.834;2023-06-14T08:42:01;101967.53;;;22.25;48.41
76114;BME280;64845;53.086;5.834;2023-06-14T08:44:27;101964.03;;;22.36;47.99
76114;BME280;64845;53.086;5.834;2023-06-14T08:46:55;101957.00;;;22.46;48.00
76114;BME280;64845;53.086;5.834;2023-06-14T08:49:22;101956.44;;;22.54;47.95
76114;BME280;64845;53.086;5.834;2023-06-14T08:51:54;101955.66;;;22.65;47.76
76114;BME280;64845;53.086;5.834;2023-06-14T08:54:22;101953.13;;;22.75;47.34
76114;BME280;64845;53.086;5.834;2023-06-14T08:56:49;101958.78;;;22.85;47.33
76114;BME280;64845;53.086;5.834;2023-06-14T08:59:17;101957.22;;;22.93;46.97
76114;BME280;64845;53.086;5.834;2023-06-14T09:01:43;101957.63;;;23.00;46.80
76114;BME280;64845;53.086;5.834;2023-06-14T09:04:10;101958.31;;;23.04;46.25
76114;BME280;64845;53.086;5.834;2023-06-14T09:06:36;101963.25;;;23.10;46.03
76114;BME280;64845;53.086;5.834;2023-06-14T09:09:02;101963.94;;;23.14;45.86
76114;BME280;64845;53.086;5.834;2023-06-14T09:11:30;101961.59;;;23.20;45.97
76114;BME280;64845;53.086;5.834;2023-06-14T09:13:56;101966.38;;;23.30;45.63
76114;BME280;64845;53.086;5.834;2023-06-14T09:16:21;101963.22;;;23.36;44.96
76114;BME280;64845;53.086;5.834;2023-06-14T09:18:47;101966.19;;;23.44;45.15
76114;BME280;64845;53.086;5.834;2023-06-14T09:21:14;101968.38;;;23.52;44.98
76114;BME280;64845;53.086;5.834;2023-06-14T09:23:42;101966.78;;;23.61;44.64
76114;BME280;64845;53.086;5.834;2023-06-14T09:28:33;101967.44;;;23.76;44.00
76114;BME280;64845;53.086;5.834;2023-06-14T09:31:00;101965.25;;;23.81;44.05
76114;BME280;64845;53.086;5.834;2023-06-14T09:33:26;101969.34;;;23.87;43.68
76114;BME280;64845;53.086;5.834;2023-06-14T09:35:54;101967.88;;;23.94;43.68
76114;BME280;64845;53.086;5.834;2023-06-14T09:38:20;101961.72;;;24.03;43.84
76114;BME280;64845;53.086;5.834;2023-06-14T09:40:45;101956.78;;;24.08;43.37
76114;BME280;64845;53.086;5.834;2023-06-14T09:43:11;101958.03;;;24.16;43.27
76114;BME280;64845;53.086;5.834;2023-06-14T09:45:38;101969.19;;;24.24;43.13
76114;BME280;64845;53.086;5.834;2023-06-14T09:48:06;101970.47;;;24.31;42.83
76114;BME280;64845;53.086;5.834;2023-06-14T09:50:32;101959.31;;;24.34;42.68
76114;BME280;64845;53.086;5.834;2023-06-14T09:53:07;101967.72;;;24.42;42.78
76114;BME280;64845;53.086;5.834;2023-06-14T09:55:37;101955.22;;;24.51;42.63
76114;BME280;64845;53.086;5.834;2023-06-14T09:58:07;101959.06;;;24.60;42.29
76114;BME280;64845;53.086;5.834;2023-06-14T10:00:33;101959.44;;;24.67;42.07
76114;BME280;64845;53.086;5.834;2023-06-14T10:03:13;101959.94;;;24.72;41.90
76114;BME280;64845;53.086;5.834;2023-06-14T10:05:41;101956.47;;;24.81;41.83
76114;BME280;64845;53.086;5.834;2023-06-14T10:08:09;101964.28;;;24.86;41.36
76114;BME280;64845;53.086;5.834;2023-06-14T10:10:35;101966.38;;;24.94;41.40
76114;BME280;64845;53.086;5.834;2023-06-14T10:13:03;101957.81;;;24.98;41.02
76114;BME280;64845;53.086;5.834;2023-06-14T10:15:38;101960.91;;;25.05;41.27
76114;BME280;64845;53.086;5.834;2023-06-14T10:18:24;101957.53;;;25.13;41.10
76114;BME280;64845;53.086;5.834;2023-06-14T10:21:08;101967.66;;;25.22;40.85
76114;BME280;64845;53.086;5.834;2023-06-14T10:23:41;101968.03;;;25.29;40.66
76114;BME280;64845;53.086;5.834;2023-06-14T10:26:08;101962.19;;;25.33;40.48
76114;BME280;64845;53.086;5.834;2023-06-14T10:28:37;101967.66;;;25.33;39.89
76114;BME280;64845;53.086;5.834;2023-06-14T10:31:03;101958.31;;;25.36;40.13
76114;BME280;64845;53.086;5.834;2023-06-14T10:33:33;101958.94;;;25.40;40.25
76114;BME280;64845;53.086;5.834;2023-06-14T10:36:30;101947.84;;;25.41;39.60
76114;BME280;64845;53.086;5.834;2023-06-14T10:39:16;101948.50;;;25.45;39.66
76114;BME280;64845;53.086;5.834;2023-06-14T10:41:42;101948.38;;;25.46;39.78
76114;BME280;64845;53.086;5.834;2023-06-14T10:46:53;101962.97;;;25.57;39.59
76114;BME280;64845;53.086;5.834;2023-06-14T10:49:20;101945.31;;;25.61;39.30
76114;BME280;64845;53.086;5.834;2023-06-14T10:51:52;101953.75;;;25.69;39.22
76114;BME280;64845;53.086;5.834;2023-06-14T10:54:20;101957.56;;;25.78;39.36
76114;BME280;64845;53.086;5.834;2023-06-14T10:56:47;101952.69;;;25.82;38.79
76114;BME280;64845;53.086;5.834;2023-06-14T10:59:13;101943.31;;;25.84;38.77
76114;BME280;64845;53.086;5.834;2023-06-14T11:02:01;101945.78;;;25.87;38.75
76114;BME280;64845;53.086;5.834;2023-06-14T11:05:03;101945.13;;;25.95;39.06
76114;BME280;64845;53.086;5.834;2023-06-14T11:10:45;101946.50;;;26.10;38.79
76114;BME280;64845;53.086;5.834;2023-06-14T11:13:11;101949.00;;;26.14;38.48
76114;BME280;64845;53.086;5.834;2023-06-14T11:15:37;101951.22;;;26.20;38.54
76114;BME280;64845;53.086;5.834;2023-06-14T11:18:05;101951.53;;;26.27;38.49
76114;BME280;64845;53.086;5.834;2023-06-14T11:20:32;101952.28;;;26.29;38.34
76114;BME280;64845;53.086;5.834;2023-06-14T11:22:58;101948.09;;;26.34;38.72
76114;BME280;64845;53.086;5.834;2023-06-14T11:25:24;101948.72;;;26.38;38.44
76114;BME280;64845;53.086;5.834;2023-06-14T11:27:50;101954.91;;;26.40;38.40
76114;BME280;64845;53.086;5.834;2023-06-14T11:30:16;101947.16;;;26.45;38.48
76114;BME280;64845;53.086;5.834;2023-06-14T11:32:42;101944.41;;;26.45;38.23
76114;BME280;64845;53.086;5.834;2023-06-14T11:35:08;101938.94;;;26.45;38.38
76114;BME280;64845;53.086;5.834;2023-06-14T11:37:36;101938.13;;;26.54;38.40
76114;BME280;64845;53.086;5.834;2023-06-14T11:40:03;101929.59;;;26.58;38.39
76114;BME280;64845;53.086;5.834;2023-06-14T11:42:31;101925.84;;;26.59;38.45
76114;BME280;64845;53.086;5.834;2023-06-14T11:44:56;101935.41;;;26.64;38.02
76114;BME280;64845;53.086;5.834;2023-06-14T11:47:22;101938.72;;;26.68;38.23
76114;BME280;64845;53.086;5.834;2023-06-14T11:49:48;101922.00;;;26.61;37.98
76114;BME280;64845;53.086;5.834;2023-06-14T11:52:14;101929.06;;;26.64;37.90
76114;BME280;64845;53.086;5.834;2023-06-14T11:54:39;101932.09;;;26.70;38.11
76114;BME280;64845;53.086;5.834;2023-06-14T11:57:06;101927.97;;;26.76;37.61
76114;BME280;64845;53.086;5.834;2023-06-14T11:59:38;101928.28;;;26.83;38.13
76114;BME280;64845;53.086;5.834;2023-06-14T12:02:04;101923.56;;;26.95;38.02
76114;BME280;64845;53.086;5.834;2023-06-14T12:04:29;101936.41;;;27.04;37.95
76114;BME280;64845;53.086;5.834;2023-06-14T12:06:55;101923.88;;;27.11;37.54
76114;BME280;64845;53.086;5.834;2023-06-14T12:09:23;101922.59;;;27.15;37.15
76114;BME280;64845;53.086;5.834;2023-06-14T12:11:49;101920.25;;;27.21;37.15
76114;BME280;64845;53.086;5.834;2023-06-14T12:14:15;101923.16;;;27.29;37.45
76114;BME280;64845;53.086;5.834;2023-06-14T12:16:42;101921.53;;;27.36;37.40
76114;BME280;64845;53.086;5.834;2023-06-14T12:19:14;101916.50;;;27.41;36.93
76114;BME280;64845;53.086;5.834;2023-06-14T12:21:41;101929.41;;;27.51;36.87
76114;BME280;64845;53.086;5.834;2023-06-14T12:24:07;101924.31;;;27.56;37.25
76114;BME280;64845;53.086;5.834;2023-06-14T12:26:33;101926.19;;;27.65;37.11
76114;BME280;64845;53.086;5.834;2023-06-14T12:28:59;101922.00;;;27.71;36.92
76114;BME280;64845;53.086;5.834;2023-06-14T12:31:24;101923.59;;;27.73;36.71
76114;BME280;64845;53.086;5.834;2023-06-14T12:33:51;101921.41;;;27.77;36.49
76114;BME280;64845;53.086;5.834;2023-06-14T12:36:17;101925.31;;;27.84;36.48
76114;BME280;64845;53.086;5.834;2023-06-14T12:38:42;101913.16;;;27.87;36.17
76114;BME280;64845;53.086;5.834;2023-06-14T12:41:08;101911.88;;;27.91;36.73
76114;BME280;64845;53.086;5.834;2023-06-14T12:43:33;101913.16;;;27.97;36.53
76114;BME280;64845;53.086;5.834;2023-06-14T12:46:00;101914.44;;;28.02;36.31
76114;BME280;64845;53.086;5.834;2023-06-14T12:48:26;101915.34;;;27.93;36.25
76114;BME280;64845;53.086;5.834;2023-06-14T12:50:56;101904.34;;;27.93;36.30
76114;BME280;64845;53.086;5.834;2023-06-14T12:53:21;101906.38;;;27.91;36.29
76114;BME280;64845;53.086;5.834;2023-06-14T12:55:48;101917.63;;;27.98;36.35
76114;BME280;64845;53.086;5.834;2023-06-14T12:58:14;101912.84;;;28.00;36.49
76114;BME280;64845;53.086;5.834;2023-06-14T13:00:40;101916.03;;;27.95;36.05
76114;BME280;64845;53.086;5.834;2023-06-14T13:03:05;101917.63;;;27.98;35.73